createdAt,value
2018-05-14T00:02:23.893Z,10.00
2018-05-14T00:04:51.398Z,7.80
2018-05-14T00:07:18.918Z,9.90
2018-05-14T00:09:46.444Z,10.33
2018-05-14T00:12:14.040Z,8.33
2018-05-14T00:14:41.577Z,13.53
2018-05-14T00:17:09.187Z,8.83
2018-05-14T00:19:36.741Z,10.70
2018-05-14T00:22:04.302Z,9.57
2018-05-14T00:24:31.894Z,10.53
2018-05-14T00:26:59.409Z,11.23
2018-05-14T00:29:26.940Z,11.53
2018-05-14T00:31:54.504Z,11.53
2018-05-14T00:34:22.018Z,12.93
2018-05-14T00:36:49.591Z,12.77
2018-05-14T00:39:17.119Z,13.53
2018-05-14T00:41:44.645Z,12.43
2018-05-14T00:44:12.221Z,12.07
2018-05-14T00:46:39.750Z,9.93
2018-05-14T00:49:07.346Z,10.33
2018-05-14T00:51:34.921Z,10.33
2018-05-14T00:54:02.478Z,10.53
2018-05-14T00:56:30.059Z,11.03
2018-05-14T00:58:57.607Z,10.50
2018-05-14T01:01:25.140Z,11.23
2018-05-14T01:03:52.669Z,13.80
2018-05-14T01:06:20.218Z,11.73
2018-05-14T01:08:47.769Z,12.47
2018-05-14T01:11:15.286Z,12.60
2018-05-14T01:13:42.865Z,12.30
2018-05-14T01:16:10.379Z,13.23
2018-05-14T01:18:37.895Z,14.53
2018-05-14T01:21:05.462Z,13.93
2018-05-14T01:23:33.008Z,13.97
2018-05-14T01:26:00.577Z,12.13
2018-05-14T01:28:28.812Z,14.37
2018-05-14T01:30:56.353Z,14.70
2018-05-14T01:33:23.909Z,15.10
2018-05-14T01:35:51.484Z,15.23
2018-05-14T01:38:19.033Z,14.83
2018-05-14T01:40:46.571Z,14.87
2018-05-14T01:43:14.175Z,14.53
2018-05-14T01:45:41.711Z,15.67
2018-05-14T01:48:09.226Z,13.77
2018-05-14T01:50:36.787Z,14.30
2018-05-14T01:53:04.314Z,13.60
2018-05-14T01:55:31.886Z,13.97
2018-05-14T01:57:59.423Z,12.10
2018-05-14T02:00:26.947Z,12.20
2018-05-14T02:02:54.534Z,12.77
2018-05-14T02:05:22.044Z,13.10
2018-05-14T02:07:49.589Z,11.90
2018-05-14T02:10:17.097Z,11.90
2018-05-14T02:12:44.651Z,17.20
2018-05-14T02:15:12.193Z,11.30
2018-05-14T02:17:39.728Z,11.63
2018-05-14T02:20:07.301Z,10.70
2018-05-14T02:22:34.839Z,11.47
2018-05-14T02:25:02.377Z,12.07
2018-05-14T02:27:29.925Z,12.33
2018-05-14T02:29:57.550Z,12.87
2018-05-14T02:32:25.106Z,12.10
2018-05-14T02:34:52.645Z,14.00
2018-05-14T02:37:20.196Z,13.90
2018-05-14T02:39:47.747Z,14.03
2018-05-14T02:42:15.241Z,16.60
2018-05-14T02:44:42.839Z,15.90
2018-05-14T02:47:10.371Z,14.77
2018-05-14T02:49:37.918Z,16.70
2018-05-14T02:52:05.493Z,16.73
2018-05-14T02:54:33.033Z,16.20
2018-05-14T02:57:00.591Z,20.07
2018-05-14T02:59:28.127Z,15.67
2018-05-14T03:01:55.629Z,19.40
2018-05-14T03:04:23.197Z,17.57
2018-05-14T03:06:50.764Z,18.10
2018-05-14T03:09:18.338Z,17.57
2018-05-14T03:11:45.910Z,17.47
2018-05-14T03:14:13.450Z,17.80
2018-05-14T03:16:40.980Z,19.23
2018-05-14T03:19:08.515Z,19.23
2018-05-14T03:21:36.092Z,18.83
2018-05-14T03:24:03.620Z,18.53
2018-05-14T03:26:31.174Z,19.07
2018-05-14T03:28:58.714Z,20.97
2018-05-14T03:31:26.239Z,18.97
2018-05-14T03:33:53.854Z,22.30
2018-05-14T03:36:21.395Z,21.87
2018-05-14T03:38:49.003Z,22.90
2018-05-14T03:41:16.546Z,23.60
2018-05-14T03:43:44.118Z,24.27
2018-05-14T03:46:11.649Z,24.63
2018-05-14T03:48:39.189Z,26.33
2018-05-14T03:51:06.736Z,29.97
2018-05-14T03:53:34.330Z,25.33
2018-05-14T03:56:01.877Z,27.83
2018-05-14T03:58:41.330Z,25.27
2018-05-14T04:01:16.870Z,24.83
2018-05-14T04:06:45.107Z,24.67
2018-05-14T04:09:12.658Z,22.80
2018-05-14T04:11:40.207Z,23.20
2018-05-14T04:14:07.787Z,21.73
2018-05-14T04:16:35.349Z,21.50
2018-05-14T04:19:02.862Z,20.93
2018-05-14T04:21:30.424Z,19.27
2018-05-14T04:23:57.930Z,19.90
2018-05-14T04:26:25.480Z,18.50
2018-05-14T04:28:52.998Z,19.70
2018-05-14T04:31:20.549Z,17.73
2018-05-14T04:33:48.088Z,15.60
2018-05-14T04:36:15.646Z,16.90
2018-05-14T04:38:43.305Z,17.33
2018-05-14T04:41:10.862Z,22.23
2018-05-14T04:43:39.473Z,15.23
2018-05-14T04:46:07.095Z,15.73
2018-05-14T04:48:35.538Z,16.17
2018-05-14T04:51:03.091Z,16.43
2018-05-14T04:53:30.639Z,17.20
2018-05-14T04:55:58.144Z,17.70
2018-05-14T04:58:25.722Z,15.33
2018-05-14T05:00:53.237Z,16.00
2018-05-14T05:03:20.754Z,15.83
2018-05-14T05:05:48.299Z,14.90
2018-05-14T05:08:15.803Z,14.43
2018-05-14T05:10:43.368Z,15.53
2018-05-14T05:13:10.878Z,16.03
2018-05-14T05:15:38.431Z,15.47
2018-05-14T05:18:05.930Z,17.00
2018-05-14T05:20:33.493Z,18.13
2018-05-14T05:23:01.029Z,16.70
2018-05-14T05:25:28.552Z,16.67
2018-05-14T05:27:56.095Z,17.60
2018-05-14T05:30:23.623Z,17.77
2018-05-14T05:32:51.179Z,18.50
2018-05-14T05:35:18.777Z,18.50
2018-05-14T05:37:46.327Z,18.87
2018-05-14T05:40:13.887Z,22.13
2018-05-14T05:42:41.399Z,19.93
2018-05-14T05:45:08.970Z,19.03
2018-05-14T05:47:36.520Z,20.50
2018-05-14T05:50:04.176Z,17.40
2018-05-14T05:52:31.692Z,18.80
2018-05-14T05:54:59.327Z,16.00
2018-05-14T05:57:26.865Z,17.70
2018-05-14T05:59:54.574Z,15.20
2018-05-14T06:02:22.151Z,13.97
2018-05-14T06:04:50.121Z,14.20
2018-05-14T06:07:17.670Z,17.20
2018-05-14T06:09:45.182Z,13.73
2018-05-14T06:12:12.719Z,14.73
2018-05-14T06:14:40.218Z,12.33
2018-05-14T06:17:07.741Z,13.87
2018-05-14T06:19:35.259Z,14.43
2018-05-14T06:22:02.749Z,12.53
2018-05-14T06:24:30.311Z,16.87
2018-05-14T06:26:57.853Z,13.80
2018-05-14T06:29:25.397Z,16.27
2018-05-14T06:31:52.897Z,14.17
2018-05-14T06:34:20.406Z,12.07
2018-05-14T06:36:47.935Z,12.70
2018-05-14T06:39:15.439Z,11.33
2018-05-14T06:41:43.127Z,13.73
2018-05-14T06:44:11.534Z,15.40
2018-05-14T06:46:39.039Z,14.40
2018-05-14T06:49:06.564Z,15.70
2018-05-14T06:51:34.070Z,14.10
2018-05-14T06:54:01.599Z,16.30
2018-05-14T06:56:29.093Z,15.80
2018-05-14T06:58:57.221Z,15.60
2018-05-14T07:01:24.746Z,16.43
2018-05-14T07:03:52.244Z,15.73
2018-05-14T07:06:19.790Z,16.73
2018-05-14T07:08:47.290Z,17.97
2018-05-14T07:11:14.785Z,17.87
2018-05-14T07:13:42.314Z,19.23
2018-05-14T07:16:09.816Z,19.30
2018-05-14T07:18:37.351Z,16.77
2018-05-14T07:21:04.855Z,16.67
2018-05-14T07:23:32.353Z,14.63
2018-05-14T07:25:59.934Z,14.90
2018-05-14T07:28:27.414Z,16.23
2018-05-14T07:30:54.946Z,15.87
2018-05-14T07:33:22.448Z,15.47
2018-05-14T07:35:49.954Z,15.70
2018-05-14T07:38:17.483Z,15.83
2018-05-14T07:40:44.981Z,16.30
2018-05-14T07:43:12.507Z,16.83
2018-05-14T07:45:40.069Z,15.77
2018-05-14T07:48:07.533Z,18.73
2018-05-14T07:50:35.062Z,16.67
2018-05-14T07:53:02.570Z,15.83
2018-05-14T07:55:30.105Z,17.30
2018-05-14T07:57:57.602Z,15.47
2018-05-14T08:00:25.201Z,19.07
2018-05-14T08:02:52.662Z,23.00
2018-05-14T08:05:20.174Z,20.73
2018-05-14T08:07:47.700Z,23.77
2018-05-14T08:10:15.207Z,28.30
2018-05-14T08:12:42.728Z,25.67
2018-05-14T08:15:10.256Z,26.70
2018-05-14T08:17:37.755Z,26.47
2018-05-14T08:20:05.281Z,26.13
2018-05-14T08:22:32.777Z,25.90
2018-05-14T08:25:00.273Z,22.97
2018-05-14T08:27:27.795Z,23.40
2018-05-14T08:29:55.290Z,23.33
2018-05-14T08:32:22.825Z,21.80
2018-05-14T08:34:50.335Z,22.73
2018-05-14T08:37:17.834Z,19.10
2018-05-14T08:39:45.362Z,19.17
2018-05-14T08:42:12.866Z,20.23
2018-05-14T08:44:40.399Z,19.60
2018-05-14T08:47:07.909Z,20.90
2018-05-14T08:49:35.410Z,21.10
2018-05-14T08:52:03.925Z,22.57
2018-05-14T08:54:31.514Z,23.43
2018-05-14T08:56:58.990Z,22.60
2018-05-14T08:59:26.485Z,25.23
2018-05-14T09:01:53.986Z,26.27
2018-05-14T09:04:21.737Z,23.20
2018-05-14T09:06:49.040Z,23.70
2018-05-14T09:09:16.571Z,21.17
2018-05-14T09:11:44.075Z,24.47
2018-05-14T09:14:11.578Z,22.20
2018-05-14T09:16:39.104Z,22.20
2018-05-14T09:19:06.614Z,25.80
2018-05-14T09:21:34.152Z,23.77
2018-05-14T09:24:01.663Z,24.50
2018-05-14T09:26:29.166Z,25.77
2018-05-14T09:28:56.931Z,23.53
2018-05-14T09:31:24.463Z,22.70
2018-05-14T09:33:51.982Z,23.27
2018-05-14T09:36:19.487Z,24.23
2018-05-14T09:38:46.990Z,23.43
2018-05-14T09:41:14.514Z,22.80
2018-05-14T09:43:42.018Z,27.67
2018-05-14T09:46:09.550Z,27.20
2018-05-14T09:48:37.051Z,28.17
2018-05-14T09:51:04.557Z,28.13
2018-05-14T09:53:32.086Z,27.43
2018-05-14T09:55:59.590Z,25.77
2018-05-14T09:58:27.119Z,25.27
2018-05-14T10:00:54.631Z,23.97
2018-05-14T10:03:22.135Z,24.13
2018-05-14T10:05:49.666Z,24.50
2018-05-14T10:08:17.176Z,24.07
2018-05-14T10:10:44.712Z,25.60
2018-05-14T10:13:12.237Z,23.70
2018-05-14T10:15:39.940Z,25.73
2018-05-14T10:18:07.482Z,25.83
2018-05-14T10:20:35.010Z,26.27
2018-05-14T10:23:02.508Z,30.33
2018-05-14T10:25:30.270Z,26.50
2018-05-14T10:27:57.789Z,25.73
2018-05-14T10:30:25.296Z,27.53
2018-05-14T10:32:52.843Z,33.07
2018-05-14T10:35:20.346Z,27.00
2018-05-14T10:37:47.855Z,29.73
2018-05-14T10:40:15.383Z,27.93
2018-05-14T10:42:42.889Z,29.90
2018-05-14T10:45:10.416Z,26.37
2018-05-14T10:47:37.919Z,24.57
2018-05-14T10:50:05.473Z,26.83
2018-05-14T10:52:32.998Z,29.90
2018-05-14T10:55:00.511Z,35.23
2018-05-14T10:57:28.041Z,31.37
2018-05-14T10:59:55.539Z,29.67
2018-05-14T11:02:23.047Z,31.00
2018-05-14T11:04:50.570Z,31.43
2018-05-14T11:07:18.082Z,29.77
2018-05-14T11:09:45.609Z,31.10
2018-05-14T11:12:13.101Z,31.20
2018-05-14T11:14:40.661Z,31.17
2018-05-14T11:17:08.186Z,32.70
2018-05-14T11:19:35.685Z,34.10
2018-05-14T11:22:03.214Z,31.87
2018-05-14T11:24:30.721Z,31.97
2018-05-14T11:26:58.217Z,29.37
2018-05-14T11:29:25.741Z,29.90
2018-05-14T11:31:53.243Z,30.87
2018-05-14T11:34:20.767Z,28.63
2018-05-14T11:36:48.269Z,28.60
2018-05-14T11:39:15.777Z,29.30
2018-05-14T11:41:43.322Z,29.23
2018-05-14T11:44:10.824Z,27.47
2018-05-14T11:46:38.350Z,29.43
2018-05-14T11:49:05.851Z,24.13
2018-05-14T11:51:33.362Z,25.40
2018-05-14T11:54:00.876Z,24.03
2018-05-14T11:56:28.386Z,26.30
2018-05-14T11:58:55.907Z,24.10
2018-05-14T12:01:23.402Z,25.33
2018-05-14T12:03:50.893Z,23.43
2018-05-14T12:06:18.429Z,25.33
2018-05-14T12:08:45.921Z,25.37
2018-05-14T12:11:13.426Z,24.57
2018-05-14T12:13:40.949Z,24.77
2018-05-14T12:16:08.578Z,26.17
2018-05-14T12:18:36.012Z,25.73
2018-05-14T12:21:03.511Z,26.23
2018-05-14T12:23:31.081Z,26.30
2018-05-14T12:25:58.608Z,25.83
2018-05-14T12:28:26.104Z,25.40
2018-05-14T12:30:53.638Z,27.60
2018-05-14T12:33:21.156Z,26.13
2018-05-14T12:35:48.663Z,24.07
2018-05-14T12:38:16.192Z,25.30
2018-05-14T12:40:43.695Z,26.43
2018-05-14T12:43:11.238Z,27.87
2018-05-14T12:45:38.744Z,27.10
2018-05-14T12:48:06.256Z,28.17
2018-05-14T12:50:33.780Z,27.70
2018-05-14T12:53:01.287Z,29.90
2018-05-14T12:55:28.847Z,25.00
2018-05-14T12:57:56.359Z,23.43
2018-05-14T13:00:23.859Z,26.50
2018-05-14T13:02:51.387Z,23.40
2018-05-14T13:05:18.892Z,21.83
2018-05-14T13:07:46.418Z,22.73
2018-05-14T13:10:13.923Z,22.93
2018-05-14T13:12:41.423Z,22.87
2018-05-14T13:15:08.954Z,21.67
2018-05-14T13:17:36.453Z,22.20
2018-05-14T13:20:03.970Z,22.33
2018-05-14T13:22:31.466Z,21.13
2018-05-14T13:24:58.970Z,21.43
2018-05-14T13:27:26.498Z,22.10
2018-05-14T13:29:54.006Z,22.67
2018-05-14T13:32:21.538Z,19.50
2018-05-14T13:34:49.037Z,20.60
2018-05-14T13:37:16.552Z,21.67
2018-05-14T13:39:44.082Z,18.87
2018-05-14T13:42:11.653Z,18.83
2018-05-14T13:44:39.181Z,19.33
2018-05-14T13:47:06.702Z,18.73
2018-05-14T13:49:34.207Z,20.00
2018-05-14T13:52:01.737Z,15.40
2018-05-14T13:54:29.243Z,13.30
2018-05-14T13:56:56.765Z,16.87
2018-05-14T13:59:24.262Z,12.20
2018-05-14T14:01:51.764Z,14.13
2018-05-14T14:04:19.281Z,12.43
2018-05-14T14:06:46.765Z,9.83
2018-05-14T14:09:14.288Z,12.17
2018-05-14T14:11:41.786Z,13.43
2018-05-14T14:14:09.286Z,8.37
2018-05-14T14:16:36.811Z,10.03
2018-05-14T14:19:04.310Z,8.37
2018-05-14T14:21:31.830Z,7.27
2018-05-14T14:23:59.647Z,14.20
2018-05-14T14:26:26.834Z,10.57
2018-05-14T14:28:54.366Z,10.67
2018-05-14T14:31:21.871Z,10.40
2018-05-14T14:33:49.399Z,7.73
2018-05-14T14:36:17.022Z,7.20
2018-05-14T14:38:44.444Z,7.03
2018-05-14T14:41:11.971Z,7.63
2018-05-14T14:43:39.475Z,11.07
2018-05-14T14:46:07.007Z,10.00
2018-05-14T14:48:34.518Z,11.53
2018-05-14T14:51:02.036Z,8.47
2018-05-14T14:53:29.655Z,12.17
2018-05-14T14:55:57.106Z,8.33
2018-05-14T14:58:24.643Z,9.33
2018-05-14T15:00:52.136Z,6.93
2018-05-14T15:03:19.654Z,10.30
2018-05-14T15:05:47.179Z,6.43
2018-05-14T15:08:14.679Z,6.10
2018-05-14T15:10:42.216Z,5.77
2018-05-14T15:13:09.720Z,5.13
2018-05-14T15:15:37.208Z,4.60
2018-05-14T15:18:04.728Z,5.03
2018-05-14T15:20:32.218Z,3.90
2018-05-14T15:22:59.745Z,5.40
2018-05-14T15:25:27.239Z,11.30
2018-05-14T15:27:54.725Z,5.60
2018-05-14T15:30:22.237Z,7.00
2018-05-14T15:32:49.727Z,5.73
2018-05-14T15:35:17.248Z,5.97
2018-05-14T15:37:44.746Z,4.90
2018-05-14T15:40:12.266Z,4.47
2018-05-14T15:42:40.762Z,4.87
2018-05-14T15:45:08.253Z,7.90
2018-05-14T15:47:35.780Z,4.43
2018-05-14T15:50:03.353Z,7.20
2018-05-14T15:52:30.803Z,4.83
2018-05-14T15:54:58.322Z,7.53
2018-05-14T15:57:25.804Z,8.00
2018-05-14T15:59:53.317Z,4.17
2018-05-14T16:02:20.803Z,6.30
2018-05-14T16:04:48.298Z,6.73
2018-05-14T16:07:15.807Z,9.57
2018-05-14T16:09:43.296Z,4.50
2018-05-14T16:12:10.890Z,5.17
2018-05-14T16:14:38.387Z,4.63
2018-05-14T16:17:05.904Z,4.67
2018-05-14T16:19:33.421Z,5.33
2018-05-14T16:22:00.915Z,6.07
2018-05-14T16:24:28.438Z,6.57
2018-05-14T16:26:55.934Z,5.37
2018-05-14T16:29:23.431Z,6.63
2018-05-14T16:31:50.950Z,5.23
2018-05-14T16:34:18.441Z,6.77
2018-05-14T16:36:45.966Z,5.03
2018-05-14T16:39:13.458Z,6.07
2018-05-14T16:41:40.970Z,5.57
2018-05-14T16:44:08.533Z,7.83
2018-05-14T16:46:36.027Z,4.30
2018-05-14T16:49:03.537Z,5.20
2018-05-14T16:51:31.047Z,10.47
2018-05-14T16:53:58.543Z,8.40
2018-05-14T16:56:26.049Z,6.37
2018-05-14T16:58:53.539Z,4.83
2018-05-14T17:01:21.069Z,6.17
2018-05-14T17:03:48.557Z,4.60
2018-05-14T17:06:16.058Z,4.70
2018-05-14T17:08:43.569Z,5.07
2018-05-14T17:11:11.063Z,7.87
2018-05-14T17:13:38.598Z,12.43
2018-05-14T17:16:06.099Z,11.30
2018-05-14T17:18:33.594Z,5.57
2018-05-14T17:21:01.109Z,6.87
2018-05-14T17:23:28.610Z,10.23
2018-05-14T17:25:56.139Z,11.80
2018-05-14T17:28:23.642Z,14.37
2018-05-14T17:30:51.134Z,9.60
2018-05-14T17:33:18.887Z,6.13
2018-05-14T17:35:46.391Z,6.67
2018-05-14T17:38:13.894Z,4.67
2018-05-14T17:40:41.407Z,8.27
2018-05-14T17:43:08.899Z,4.77
2018-05-14T17:45:36.390Z,5.87
2018-05-14T17:48:03.905Z,8.60
2018-05-14T17:50:31.406Z,5.13
2018-05-14T17:52:58.996Z,5.43
2018-05-14T17:55:26.434Z,4.40
2018-05-14T17:57:53.943Z,4.47
2018-05-14T18:00:21.458Z,7.37
2018-05-14T18:02:49.792Z,7.03
2018-05-14T18:05:17.353Z,4.87
2018-05-14T18:07:44.881Z,7.60
2018-05-14T18:10:12.396Z,7.70
2018-05-14T18:12:39.928Z,4.27
2018-05-14T18:15:07.419Z,5.60
2018-05-14T18:17:35.051Z,6.50
2018-05-14T18:20:07.960Z,6.33
2018-05-14T18:22:40.925Z,7.10
2018-05-14T18:25:13.935Z,13.20
2018-05-14T18:27:47.074Z,8.57
2018-05-14T18:30:14.600Z,8.33
2018-05-14T18:35:54.278Z,5.20
2018-05-14T18:38:21.778Z,4.40
2018-05-14T18:40:49.302Z,6.33
2018-05-14T18:43:16.793Z,5.77
2018-05-14T18:45:44.277Z,6.30
2018-05-14T18:48:11.803Z,6.77
2018-05-14T18:50:39.301Z,6.23
2018-05-14T18:53:06.826Z,8.10
2018-05-14T18:55:34.326Z,8.27
2018-05-14T18:58:01.824Z,9.17
2018-05-14T19:00:29.337Z,7.13
2018-05-14T19:02:56.843Z,9.80
2018-05-14T19:05:24.367Z,9.70
2018-05-14T19:07:51.844Z,9.40
2018-05-14T19:10:25.073Z,8.33
2018-05-14T19:12:52.599Z,8.23
2018-05-14T19:15:25.837Z,9.37
2018-05-14T19:17:58.892Z,8.83
2018-05-14T19:20:26.401Z,8.60
2018-05-14T19:22:59.414Z,11.50
2018-05-14T19:25:27.034Z,5.23
2018-05-14T19:28:00.242Z,13.13
2018-05-14T19:30:27.767Z,5.47
2018-05-14T19:32:55.283Z,5.17
2018-05-14T19:35:28.421Z,9.57
2018-05-14T19:37:55.911Z,8.27
2018-05-14T19:40:29.005Z,7.37
2018-05-14T19:42:56.481Z,9.37
2018-05-14T19:45:23.988Z,7.93
2018-05-14T19:47:51.519Z,7.57
2018-05-14T19:50:19.067Z,7.37
2018-05-14T19:52:46.605Z,5.03
2018-05-14T19:55:14.119Z,6.17
2018-05-14T19:57:41.631Z,9.53
2018-05-14T20:00:09.182Z,7.07
2018-05-14T20:02:36.681Z,7.23
2018-05-14T20:05:04.233Z,8.40
2018-05-14T20:07:31.747Z,5.30
2018-05-14T20:09:59.338Z,12.50
2018-05-14T20:12:26.882Z,6.00
2018-05-14T20:14:54.401Z,7.97
2018-05-14T20:17:21.958Z,5.67
2018-05-14T20:19:49.505Z,6.30
2018-05-14T20:22:17.026Z,8.63
2018-05-14T20:24:44.653Z,8.77
2018-05-14T20:27:12.183Z,6.70
2018-05-14T20:29:39.749Z,7.67
2018-05-14T20:32:07.274Z,11.13
2018-05-14T20:34:34.802Z,14.13
2018-05-14T20:37:02.340Z,9.50
2018-05-14T20:39:29.889Z,5.33
2018-05-14T20:41:57.405Z,6.83
2018-05-14T20:44:24.946Z,5.70
2018-05-14T20:46:52.442Z,5.77
2018-05-14T20:49:19.990Z,5.90
2018-05-14T20:51:47.514Z,6.33
2018-05-14T20:54:15.382Z,7.83
2018-05-14T20:56:42.921Z,6.67
2018-05-14T20:59:10.446Z,6.03
2018-05-14T21:01:38.006Z,10.03
2018-05-14T21:04:05.533Z,7.30
2018-05-14T21:06:33.091Z,10.23
2018-05-14T21:09:00.654Z,7.77
2018-05-14T21:11:28.187Z,8.73
2018-05-14T21:13:55.764Z,10.23
2018-05-14T21:16:23.286Z,11.13
2018-05-14T21:18:50.830Z,7.27
2018-05-14T21:21:18.345Z,8.13
2018-05-14T21:23:45.854Z,7.50
2018-05-14T21:26:13.406Z,12.30
2018-05-14T21:28:40.906Z,13.60
2018-05-14T21:31:08.429Z,8.87
2018-05-14T21:33:36.237Z,12.07
2018-05-14T21:36:03.774Z,7.53
2018-05-14T21:38:31.294Z,11.00
2018-05-14T21:40:58.800Z,8.03
2018-05-14T21:43:26.378Z,7.00
2018-05-14T21:45:53.917Z,7.47
2018-05-14T21:48:21.442Z,10.97
2018-05-14T21:50:48.981Z,8.20
2018-05-14T21:53:17.967Z,9.90
2018-05-14T21:55:45.545Z,8.77
2018-05-14T21:58:13.066Z,7.43
2018-05-14T22:00:40.620Z,6.87
2018-05-14T22:03:08.269Z,7.97
2018-05-14T22:08:32.238Z,7.60
2018-05-14T22:10:59.818Z,9.20
2018-05-14T22:13:27.331Z,7.03
2018-05-14T22:15:54.874Z,7.30
2018-05-14T22:18:22.440Z,6.50
2018-05-14T22:20:49.986Z,10.23
2018-05-14T22:23:17.537Z,11.37
2018-05-14T22:25:45.108Z,7.20
2018-05-14T22:28:12.655Z,7.57
2018-05-14T22:30:40.188Z,10.60
2018-05-14T22:33:07.735Z,13.10
2018-05-14T22:35:35.314Z,7.87
2018-05-14T22:38:03.103Z,10.73
2018-05-14T22:40:30.661Z,8.03
2018-05-14T22:42:58.217Z,7.80
2018-05-14T22:45:25.784Z,14.93
2018-05-14T22:47:53.374Z,8.43
2018-05-14T22:50:20.890Z,11.27
2018-05-14T22:52:48.409Z,8.80
2018-05-14T22:55:15.957Z,10.77
2018-05-14T22:57:43.478Z,7.77
2018-05-14T23:00:11.043Z,9.20
2018-05-14T23:02:38.593Z,11.10
2018-05-14T23:05:06.146Z,9.73
2018-05-14T23:07:33.678Z,10.77
2018-05-14T23:10:01.206Z,11.97
2018-05-14T23:12:28.741Z,8.50
2018-05-14T23:14:56.286Z,11.90
2018-05-14T23:17:23.810Z,10.37
2018-05-14T23:19:51.342Z,9.57
2018-05-14T23:22:18.944Z,10.63
2018-05-14T23:24:46.512Z,7.93
2018-05-14T23:27:14.043Z,7.53
2018-05-14T23:29:41.637Z,11.73
2018-05-14T23:32:09.176Z,7.90
2018-05-14T23:34:36.694Z,9.83
2018-05-14T23:37:04.222Z,11.13
2018-05-14T23:39:31.746Z,12.47
2018-05-14T23:41:59.253Z,12.03
2018-05-14T23:44:26.812Z,7.60
2018-05-14T23:46:54.371Z,9.30
2018-05-14T23:49:22.005Z,10.07
2018-05-14T23:51:49.522Z,8.80
2018-05-14T23:54:17.058Z,11.07
2018-05-14T23:56:44.652Z,9.30
2018-05-14T23:59:12.176Z,13.30
